BAW902N EGLL-EDDF
Flight info
| Callsign | BAW902N |
|---|---|
| Flight time | N/A |
| Altitude | 35000 |
| Route | DET L6 DVR UL9 KONAN UL607 SPI T180 NIVNU T847 IMCOM IMCOM1D/07R |
| Aircraft | A21N/M-SDE3FGHIRWY/LB1 |
Departure
| Time | N/A |
|---|---|
| Airport | London Heathrow Airport (EGLL) |
Arrival
| Time | 2026-04-14 13:11 |
|---|---|
| Airport | Frankfurt Main Airport (EDDF) |
| Time | Latitude | Longitude | Altitude | Speed | Heading |
|---|---|---|---|---|---|
| 2026-04-14 13:10 | 50.03511 | 8.56344 | 340 ft | 19 kts | 38° |
| 2026-04-14 13:11 | 50.03580 | 8.56430 | 340 ft | 18 kts | 39° |
| 2026-04-14 13:11 | 50.03599 | 8.56454 | 341 ft | 0 kts | 39° |
| 2026-04-14 13:14 | 50.03605 | 8.56461 | 341 ft | 5 kts | 39° |
| 2026-04-14 13:15 | 50.03644 | 8.56512 | 343 ft | 14 kts | 39° |
| 2026-04-14 13:15 | 50.03719 | 8.56608 | 344 ft | 13 kts | 41° |
| 2026-04-14 13:15 | 50.03780 | 8.56709 | 346 ft | 12 kts | 54° |
| 2026-04-14 13:15 | 50.03825 | 8.56869 | 347 ft | 11 kts | 69° |
| 2026-04-14 13:16 | 50.03843 | 8.56941 | 349 ft | 9 kts | 68° |
| 2026-04-14 13:16 | 50.03864 | 8.57029 | 351 ft | 8 kts | 69° |
| 2026-04-14 13:16 | 50.03894 | 8.57152 | 352 ft | 12 kts | 69° |
| 2026-04-14 13:16 | 50.03945 | 8.57366 | 355 ft | 23 kts | 69° |
| 2026-04-14 13:17 | 50.03999 | 8.57588 | 358 ft | 21 kts | 69° |
| 2026-04-14 13:17 | 50.04031 | 8.57725 | 361 ft | 19 kts | 69° |
| 2026-04-14 13:17 | 50.04075 | 8.57905 | 363 ft | 17 kts | 69° |
| 2026-04-14 13:17 | 50.04114 | 8.58067 | 366 ft | 14 kts | 69° |
| 2026-04-14 13:18 | 50.04161 | 8.58267 | 366 ft | 14 kts | 69° |
| 2026-04-14 13:18 | 50.04185 | 8.58369 | 366 ft | 15 kts | 68° |
| 2026-04-14 13:18 | 50.04225 | 8.58528 | 364 ft | 16 kts | 69° |
| 2026-04-14 13:18 | 50.04263 | 8.58693 | 363 ft | 16 kts | 69° |
| 2026-04-14 13:19 | 50.04305 | 8.58868 | 361 ft | 17 kts | 69° |
| 2026-04-14 13:19 | 50.04347 | 8.59040 | 363 ft | 16 kts | 70° |
| 2026-04-14 13:19 | 50.04399 | 8.59261 | 364 ft | 15 kts | 69° |
| 2026-04-14 13:19 | 50.04424 | 8.59364 | 365 ft | 14 kts | 69° |
| 2026-04-14 13:20 | 50.04487 | 8.59468 | 366 ft | 13 kts | 6° |
| 2026-04-14 13:20 | 50.04539 | 8.59469 | 365 ft | 0 kts | 357° |
| 2026-04-14 13:21 | 50.04540 | 8.59469 | 365 ft | 0 kts | 357° |
| 2026-04-14 13:21 | 50.04571 | 8.59467 | 364 ft | 12 kts | 357° |
| 2026-04-14 13:21 | 50.04635 | 8.59460 | 363 ft | 14 kts | 353° |
| 2026-04-14 13:22 | 50.04804 | 8.59378 | 361 ft | 15 kts | 327° |
| 2026-04-14 13:22 | 50.04843 | 8.59288 | 360 ft | 15 kts | 277° |
| 2026-04-14 13:22 | 50.04824 | 8.59171 | 360 ft | 6 kts | 259° |
| 2026-04-14 13:22 | 50.04859 | 8.59130 | 361 ft | 3 kts | 341° |
| 2026-04-14 13:23 | 50.04868 | 8.59125 | 362 ft | 1 kts | 342° |
| 2026-04-14 13:23 | 50.04872 | 8.59123 | 362 ft | 0 kts | 338° |
| 2026-04-14 13:23 | 50.04871 | 8.59124 | 362 ft | 0 kts | 334° |
| 2026-04-14 13:23 | 50.04868 | 8.59126 | 362 ft | 0 kts | 339° |
| 2026-04-14 13:24 | 50.04887 | 8.59116 | 363 ft | 2 kts | 340° |
| 2026-04-14 13:24 | 50.04892 | 8.59113 | 363 ft | 0 kts | 340° |